Time;durP1;ratioP1;P1;durP2;ratioP2;P2;SDS_P1;SDS_P2;PMS_P1;PMS_P2;Temp;Humidity;BMP_temperature;BMP_pressure;BME280_temperature;BME280_humidity;BME280_pressure;Samples;Min_cycle;Max_cycle;Signal;HPM_P1;HPM_P2
2022/09/05 00:02:06;;;;;;;31.70;13.70;;;;;;;6.71;94.60;100246.98;1693898;83;21184;-69
2022/09/05 00:04:45;;;;;;;;;;;;;;;6.73;94.92;100246.16;1717275;83;21621;-69
2022/09/05 00:07:26;;;;;;;27.32;12.95;;;;;;;6.77;94.99;100241.80;1679721;83;20181;-68
2022/09/05 00:10:23;;;;;;;29.70;13.75;;;;;;;6.80;95.09;100246.70;1712275;83;20974;-68
2022/09/05 00:12:50;;;;;;;29.00;13.40;;;;;;;6.82;95.01;100243.16;1714558;83;20940;-69
2022/09/05 00:15:44;;;;;;;29.65;13.08;;;;;;;6.82;95.11;100240.42;1713480;83;21252;-68
2022/09/05 00:18:34;;;;;;;27.87;12.98;;;;;;;6.83;95.22;100237.97;1711800;83;20955;-68
2022/09/05 00:21:22;;;;;;;32.00;13.68;;;;;;;6.85;95.26;100238.52;1719673;83;21070;-68
2022/09/05 00:24:28;;;;;;;29.05;12.98;;;;;;;6.87;95.41;100237.69;1716819;83;20939;-68
2022/09/05 00:27:36;;;;;;;28.47;12.73;;;;;;;6.90;95.48;100235.78;1713930;83;20942;-67
2022/09/05 00:30:18;;;;;;;24.92;11.40;;;;;;;6.91;95.36;100238.78;1708170;83;21165;-67
2022/09/05 00:33:15;;;;;;;24.55;11.97;;;;;;;6.86;95.30;100236.87;1694056;83;21001;-66
2022/09/05 00:36:13;;;;;;;27.45;11.12;;;;;;;6.83;95.33;100229.23;1711950;81;20888;-66
2022/09/05 00:38:41;;;;;;;26.80;11.97;;;;;;;6.82;95.36;100229.51;1726363;82;21200;-67
2022/09/05 00:41:11;;;;;;;26.42;11.85;;;;;;;6.81;95.33;100219.69;1683061;84;20935;-66
2022/09/05 00:43:42;;;;;;;27.02;10.80;;;;;;;6.79;95.26;100212.31;1711757;82;21483;-67
2022/09/05 00:46:27;;;;;;;27.22;12.23;;;;;;;6.78;95.24;100212.05;1690398;83;20990;-67
2022/09/05 00:49:25;;;;;;;22.62;10.50;;;;;;;6.76;95.31;100206.86;1673155;84;21522;-67
2022/09/05 00:52:07;;;;;;;19.62;9.48;;;;;;;6.78;95.49;100203.86;1684063;83;21033;-67
2022/09/05 00:54:54;;;;;;;28.47;11.23;;;;;;;6.78;95.55;100203.31;1677353;83;21038;-67
2022/09/05 00:57:53;;;;;;;27.52;11.48;;;;;;;6.78;95.61;100204.67;1713447;82;21164;-67
2022/09/05 01:00:26;;;;;;;21.05;10.50;;;;;;;6.79;95.72;100196.77;1729217;82;20963;-67
2022/09/05 01:03:22;;;;;;;21.77;10.48;;;;;;;6.82;95.83;100201.67;1700615;82;21061;-69
2022/09/05 01:06:03;;;;;;;20.80;10.00;;;;;;;6.82;95.86;100199.48;1691199;83;21014;-69
2022/09/05 01:08:49;;;;;;;24.72;10.32;;;;;;;6.83;96.07;100200.58;1713763;83;20924;-69
2022/09/05 01:11:58;;;;;;;22.52;10.40;;;;;;;6.84;96.27;100195.39;1713378;82;21158;-69
2022/09/05 01:15:21;;;;;;;26.85;11.18;;;;;;;6.85;96.41;100188.02;1714460;83;20991;-70
2022/09/05 01:18:25;;;;;;;;;;;;;;;6.88;96.72;100195.66;1717815;83;20907;-70
2022/09/05 01:21:19;;;;;;;25.75;10.63;;;;;;;6.91;97.17;100186.92;1707504;83;20416;-70
2022/09/05 01:24:10;;;;;;;24.52;10.88;;;;;;;6.93;97.50;100184.73;1713344;83;21555;-69
2022/09/05 01:27:13;;;;;;;23.73;11.75;;;;;;;6.98;97.93;100177.88;1711076;83;21782;-69
2022/09/05 01:29:55;;;;;;;24.18;11.70;;;;;;;7.06;98.26;100187.41;1711400;83;20880;-69
2022/09/05 01:32:36;;;;;;;27.37;11.30;;;;;;;7.11;98.45;100184.12;1716561;83;20957;-69
2022/09/05 01:35:35;;;;;;;24.20;11.12;;;;;;;7.16;98.61;100186.02;1714281;83;20951;-67
2022/09/05 01:38:37;;;;;;;30.17;11.95;;;;;;;7.20;98.77;100183.82;1709002;83;20928;-67
2022/09/05 01:41:27;;;;;;;28.55;12.25;;;;;;;7.25;98.98;100185.17;1640662;85;21259;-68
2022/09/05 01:44:31;;;;;;;25.40;12.37;;;;;;;7.29;98.87;100176.69;1722814;83;20975;-68
2022/09/05 01:47:07;;;;;;;27.07;12.70;;;;;;;7.35;98.75;100182.14;1711692;82;20980;-69
2022/09/05 01:49:54;;;;;;;30.08;12.55;;;;;;;7.41;98.89;100176.92;1689196;83;20976;-69
2022/09/05 01:52:59;;;;;;;30.05;12.75;;;;;;;7.45;98.85;100178.00;1708056;83;21079;-69
2022/09/05 01:56:05;;;;;;;28.95;12.82;;;;;;;7.49;99.08;100179.08;1627216;83;21332;-68
2022/09/05 01:59:15;;;;;;;28.80;13.08;;;;;;;7.54;99.24;100174.92;1676559;85;20985;-68
2022/09/05 02:02:13;;;;;;;28.98;12.28;;;;;;;7.59;99.26;100176.27;1660021;85;20978;-68
2022/09/05 02:04:48;;;;;;;32.30;12.58;;;;;;;7.62;99.30;100180.63;1711823;82;20940;-67
2022/09/05 02:07:54;;;;;;;29.35;13.18;;;;;;;7.66;99.27;100181.43;1717918;82;20983;-67
2022/09/05 02:10:47;;;;;;;34.70;13.83;;;;;;;7.69;99.37;100178.14;1703398;83;21073;-67
2022/09/05 02:13:35;;;;;;;28.55;13.32;;;;;;;7.72;99.33;100170.74;1705466;82;20967;-68
2022/09/05 02:16:37;;;;;;;28.17;13.10;;;;;;;7.74;99.09;100165.81;1723662;82;20948;-68
2022/09/05 02:19:29;;;;;;;29.57;13.70;;;;;;;7.77;99.17;100166.06;1704582;83;21574;-68
2022/09/05 02:22:10;;;;;;;30.30;13.30;;;;;;;7.85;99.65;100157.27;1720364;82;20996;-68
2022/09/05 02:24:44;;;;;;;35.17;14.13;;;;;;;7.85;99.65;100157.27;1723796;82;21653;-69
2022/09/05 02:27:42;;;;;;;35.15;14.55;;;;;;;7.90;99.69;100162.71;1719735;82;21415;-69
2022/09/05 02:30:25;;;;;;;26.57;13.50;;;;;;;7.92;99.76;100161.88;1719715;82;21399;-69
2022/09/05 02:33:24;;;;;;;30.85;13.60;;;;;;;7.94;99.83;100154.77;1714871;83;20994;-69
2022/09/05 02:36:31;;;;;;;29.25;13.18;;;;;;;7.97;99.96;100156.92;1725606;80;20911;-69
2022/09/05 02:39:41;;;;;;;30.90;14.30;;;;;;;8.01;100.00;100155.81;1681557;84;21110;-69
2022/09/05 02:42:26;;;;;;;30.95;13.45;;;;;;;8.04;100.00;100147.05;1680333;84;20928;-69
2022/09/05 02:45:07;;;;;;;27.17;12.80;;;;;;;8.04;100.00;100157.42;1680264;84;21408;-69
2022/09/05 02:47:58;;;;;;;30.88;13.15;;;;;;;8.01;99.42;100156.63;1680942;84;20971;-69
2022/09/05 02:50:52;;;;;;;28.23;13.22;;;;;;;8.00;99.62;100156.91;1693164;83;21702;-69
2022/09/05 02:53:19;;;;;;;25.97;12.53;;;;;;;8.01;99.71;100151.71;1680947;84;21167;-69
2022/09/05 02:56:04;;;;;;;30.77;12.70;;;;;;;8.01;99.81;100152.53;1672073;84;20950;-69
2022/09/05 02:58:51;;;;;;;23.55;11.95;;;;;;;8.01;99.67;100155.27;1681163;84;20920;-67
2022/09/05 03:01:56;;;;;;;24.00;11.93;;;;;;;8.02;99.85;100153.34;1679929;84;20981;-69
2022/09/05 03:04:50;;;;;;;26.30;12.05;;;;;;;8.03;99.83;100155.80;1705378;84;20930;-69
2022/09/05 03:07:41;;;;;;;29.60;11.50;;;;;;;8.06;100.00;100157.96;1687736;84;21256;-68
2022/09/05 03:10:22;;;;;;;23.27;11.60;;;;;;;8.08;100.00;100151.66;1707727;83;20927;-68
2022/09/05 03:13:35;;;;;;;27.22;12.07;;;;;;;8.12;100.00;100155.98;1687982;83;20966;-68
2022/09/05 03:16:23;;;;;;;;;;;;;;;8.14;100.00;100150.48;1705404;83;20947;-68
2022/09/05 03:19:46;;;;;;;25.40;12.43;;;;;;;8.17;100.00;100155.94;1692872;83;20446;-68
2022/09/05 03:22:45;;;;;;;30.10;13.03;;;;;;;8.18;100.00;100154.84;1701777;83;21262;-68
2022/09/05 03:26:05;;;;;;;28.38;12.35;;;;;;;8.19;100.00;100153.19;1694301;84;20935;-68
2022/09/05 03:29:14;;;;;;;26.23;12.93;;;;;;;8.21;100.00;100152.35;1681706;84;21589;-68
2022/09/05 03:32:06;;;;;;;32.70;12.93;;;;;;;8.24;100.00;100151.78;1681235;85;21026;-69
2022/09/05 03:34:55;;;;;;;30.15;13.18;;;;;;;8.26;100.00;100152.86;1688117;84;21050;-69
2022/09/05 03:37:59;;;;;;;31.30;12.73;;;;;;;8.29;100.00;100160.50;1686393;84;21174;-68
2022/09/05 03:40:52;;;;;;;36.05;12.60;;;;;;;8.31;100.00;100162.40;1683158;83;20947;-69
2022/09/05 03:43:46;;;;;;;40.50;13.95;;;;;;;8.34;100.00;100163.78;1684102;83;21459;-67
2022/09/05 03:47:01;;;;;;;31.48;11.30;;;;;;;8.36;100.00;100169.23;1685990;82;21021;-67
2022/09/05 03:50:04;;;;;;;26.02;11.10;;;;;;;8.43;100.00;100171.64;1723680;80;21058;-67
2022/09/05 03:52:42;;;;;;;28.47;11.38;;;;;;;8.52;98.44;100165.27;1703769;81;21218;-68
2022/09/05 03:55:34;;;;;;;28.45;11.45;;;;;;;8.67;96.91;100171.68;1719858;82;20951;-68
2022/09/05 03:58:38;;;;;;;22.77;10.60;;;;;;;8.79;96.14;100177.59;1730217;82;20859;-68
2022/09/05 04:01:12;;;;;;;32.00;12.98;;;;;;;8.87;95.20;100173.67;1720853;82;21516;-67
2022/09/05 04:03:57;;;;;;;34.53;13.95;;;;;;;8.95;94.19;100176.34;1726943;82;20875;-67
2022/09/05 04:06:38;;;;;;;33.25;13.03;;;;;;;9.04;92.13;100181.45;1688709;83;21135;-67
2022/09/05 04:09:20;;;;;;;31.97;13.62;;;;;;;9.13;91.00;100174.23;1715870;82;20995;-68
2022/09/05 04:11:49;;;;;;;32.08;13.32;;;;;;;9.23;90.62;100171.38;1707105;82;21003;-67
2022/09/05 04:14:25;;;;;;;31.97;13.70;;;;;;;9.32;89.80;100167.97;1718748;82;20918;-67
2022/09/05 04:16:57;;;;;;;42.05;14.35;;;;;;;9.40;90.53;100168.69;1732866;82;20887;-67
2022/09/05 04:19:34;;;;;;;27.82;13.08;;;;;;;9.46;91.15;100163.41;1710703;82;21113;-67
2022/09/05 04:22:30;;;;;;;35.25;13.65;;;;;;;9.51;92.12;100168.83;1714924;82;21468;-67
2022/09/05 04:25:25;;;;;;;30.95;13.68;;;;;;;9.54;91.73;100168.24;1708723;82;21543;-67
2022/09/05 04:28:15;;;;;;;32.95;13.35;;;;;;;9.56;92.22;100159.17;1724117;82;20891;-67
2022/09/05 04:31:21;;;;;;;27.62;12.88;;;;;;;9.59;90.57;100162.70;1724281;82;21451;-67
2022/09/05 04:34:17;;;;;;;30.27;12.75;;;;;;;9.63;91.64;100155.52;1727675;82;21280;-68
2022/09/05 04:36:44;;;;;;;33.28;13.45;;;;;;;9.67;91.72;100163.41;1703885;82;20931;-68
2022/09/05 04:39:23;;;;;;;28.00;12.73;;;;;;;9.71;90.73;100163.08;1713147;82;20980;-67
2022/09/05 04:42:03;;;;;;;25.62;10.78;;;;;;;9.77;91.56;100161.91;1736731;80;21493;-71
2022/09/05 04:44:47;;;;;;;39.70;12.95;;;;;;;9.83;92.19;100177.70;1701613;82;20952;-67
2022/09/05 04:47:22;;;;;;;35.23;11.50;;;;;;;9.87;92.02;100178.19;1692373;82;21245;-69
2022/09/05 04:50:10;;;;;;;27.37;10.72;;;;;;;9.93;91.97;100171.52;1686075;84;20943;-68
2022/09/05 04:53:17;;;;;;;21.95;9.43;;;;;;;10.00;91.57;100175.82;1713992;82;21931;-69
2022/09/05 04:55:48;;;;;;;23.25;8.83;;;;;;;10.07;90.79;100174.89;1689873;83;21053;-70
2022/09/05 04:58:31;;;;;;;;;;;;;;;10.17;89.09;100172.00;1686072;84;20974;-69
2022/09/05 05:01:08;;;;;;;22.17;8.40;;;;;;;10.25;89.66;100165.87;1630617;86;21148;-68
2022/09/05 05:03:35;;;;;;;20.35;8.58;;;;;;;10.32;90.03;100162.75;1682553;84;21073;-69
2022/09/05 05:06:10;;;;;;;19.15;7.85;;;;;;;10.37;90.88;100164.86;1687968;84;21003;-70
2022/09/05 05:09:01;;;;;;;19.07;7.83;;;;;;;10.42;91.78;100165.30;1688199;84;20995;-68
2022/09/05 05:11:50;;;;;;;33.73;8.73;;;;;;;10.44;92.40;100163.89;1689181;84;20994;-69
2022/09/05 05:14:25;;;;;;;26.27;11.38;;;;;;;10.46;91.92;100174.01;1693579;83;21153;-68
2022/09/05 05:17:18;;;;;;;32.35;9.68;;;;;;;10.44;91.73;100174.87;1715099;82;21515;-71
2022/09/05 05:19:51;;;;;;;67.30;11.35;;;;;;;10.44;90.57;100166.63;1708678;83;21011;-69
2022/09/05 05:22:18;;;;;;;26.20;9.13;;;;;;;10.48;90.27;100168.22;1707121;83;20988;-68
2022/09/05 05:24:48;;;;;;;24.63;9.58;;;;;;;10.50;89.70;100168.73;1714936;83;20963;-71
2022/09/05 05:27:39;;;;;;;62.35;8.90;;;;;;;10.54;88.94;100167.84;1713127;83;21114;-67
2022/09/05 05:30:10;;;;;;;26.82;7.78;;;;;;;10.59;89.28;100170.50;1712676;83;21010;-74
2022/09/05 05:32:42;;;;;;;28.67;8.98;;;;;;;10.62;88.28;100169.08;1710469;83;21557;-69
2022/09/05 05:35:13;;;;;;;22.58;8.60;;;;;;;10.67;87.41;100169.55;1694887;83;21116;-71
2022/09/05 05:38:09;;;;;;;63.42;10.32;;;;;;;10.71;87.65;100167.28;1718657;82;20892;-68
2022/09/05 05:40:38;;;;;;;23.80;9.33;;;;;;;10.73;87.17;100173.84;1680305;83;21206;-70
2022/09/05 05:43:17;;;;;;;22.73;8.05;;;;;;;10.74;86.66;100165.86;1715355;83;21198;-67
2022/09/05 05:45:44;;;;;;;22.70;9.10;;;;;;;10.74;86.79;100169.42;1716077;83;21300;-67
2022/09/05 05:48:34;;;;;;;23.55;8.70;;;;;;;10.77;87.68;100175.69;1715127;83;20948;-67
2022/09/05 05:51:38;;;;;;;21.30;9.00;;;;;;;10.79;88.03;100164.40;1708455;83;20920;-67
2022/09/05 05:54:32;;;;;;;16.93;7.25;;;;;;;10.85;86.53;100165.38;1709822;83;21296;-69
2022/09/05 05:57:35;;;;;;;24.50;7.95;;;;;;;10.91;86.88;100164.17;1672147;84;21165;-68
2022/09/05 06:00:22;;;;;;;;;;;;;;;10.96;86.46;100161.07;1704738;83;21063;-70
2022/09/05 06:03:27;;;;;;;18.48;7.75;;;;;;;10.99;85.12;100162.63;1703415;83;20449;-71
2022/09/05 06:06:33;;;;;;;19.75;7.25;;;;;;;11.04;84.89;100165.84;1682786;83;21089;-69
2022/09/05 06:09:52;;;;;;;18.45;7.00;;;;;;;11.10;85.19;100170.12;1717069;82;21166;-69
2022/09/05 06:13:01;;;;;;;18.92;8.25;;;;;;;11.20;83.72;100170.73;1714391;82;20912;-69
2022/09/05 06:15:48;;;;;;;15.05;8.45;;;;;;;11.36;82.59;100178.69;1716992;82;21590;-68
2022/09/05 06:18:30;;;;;;;22.77;8.70;;;;;;;11.53;80.40;100176.14;1711839;81;21018;-69
2022/09/05 06:21:38;;;;;;;39.78;13.58;;;;;;;11.66;79.29;100182.16;1722610;81;21535;-74
2022/09/05 06:24:14;;;;;;;30.60;14.40;;;;;;;11.78;77.73;100184.41;1716066;82;21232;-72
2022/09/05 06:26:55;;;;;;;32.80;12.80;;;;;;;11.90;77.11;100189.64;1715403;82;20991;-74
2022/09/05 06:29:44;;;;;;;31.73;12.98;;;;;;;12.07;77.35;100192.31;1721017;82;20868;-72
2022/09/05 06:32:31;;;;;;;28.85;12.82;;;;;;;12.34;76.84;100189.44;1722110;81;21003;-73
2022/09/05 06:35:37;;;;;;;28.75;11.95;;;;;;;12.70;73.68;100188.58;1714186;82;37597;-73
2022/09/05 06:38:44;;;;;;;24.10;9.08;;;;;;;13.02;69.46;100188.26;1731139;82;21166;-72
2022/09/05 06:41:28;;;;;;;29.18;12.28;;;;;;;13.34;67.78;100187.68;1725822;82;21173;-72
2022/09/05 06:44:33;;;;;;;25.23;11.93;;;;;;;13.58;65.79;100187.28;1704368;81;21043;-71
2022/09/05 06:47:10;;;;;;;25.88;10.85;;;;;;;13.73;66.15;100202.02;1696156;82;20939;-71
2022/09/05 06:49:56;;;;;;;17.85;9.85;;;;;;;13.92;66.86;100200.33;1694563;83;21027;-73
2022/09/05 06:53:00;;;;;;;16.37;8.08;;;;;;;14.11;66.86;100199.46;1703918;83;21250;-73
2022/09/05 06:55:32;;;;;;;13.53;7.40;;;;;;;14.35;66.70;100210.04;1710759;82;20947;-73
2022/09/05 06:58:22;;;;;;;15.53;6.67;;;;;;;14.57;65.61;100215.41;1708051;83;20911;-72
2022/09/05 07:00:52;;;;;;;14.00;7.30;;;;;;;14.69;64.99;100220.27;1680169;83;21514;-73
2022/09/05 07:03:31;;;;;;;14.95;6.85;;;;;;;14.82;64.67;100216.52;1688679;84;20888;-73
2022/09/05 07:06:20;;;;;;;15.85;7.15;;;;;;;15.07;65.35;100219.77;1683917;84;21193;-70
2022/09/05 07:09:15;;;;;;;12.95;6.95;;;;;;;15.38;62.96;100219.52;1683476;84;20999;-71
2022/09/05 07:12:12;;;;;;;17.35;6.70;;;;;;;15.62;62.68;100219.50;1685877;84;20903;-70
2022/09/05 07:15:11;;;;;;;16.73;7.25;;;;;;;15.74;61.26;100217.65;1690103;84;20995;-70
2022/09/05 07:17:56;;;;;;;18.32;7.17;;;;;;;15.75;60.52;100223.42;1676740;84;21575;-71
2022/09/05 07:20:34;;;;;;;12.78;6.33;;;;;;;15.63;59.86;100221.94;1680103;84;21258;-72
2022/09/05 07:23:25;;;;;;;15.58;7.55;;;;;;;15.52;60.94;100222.06;1699072;84;21570;-72
2022/09/05 07:25:54;;;;;;;13.00;7.12;;;;;;;15.45;61.88;100226.73;1702363;83;20898;-70
2022/09/05 07:28:20;;;;;;;15.70;7.22;;;;;;;15.36;62.21;100234.82;1706674;82;21677;-72
2022/09/05 07:30:51;;;;;;;17.27;8.48;;;;;;;15.27;60.77;100234.03;1710015;81;21084;-68
2022/09/05 07:33:26;;;;;;;12.18;7.67;;;;;;;15.15;60.86;100242.45;1756919;81;21124;-69
2022/09/05 07:35:53;;;;;;;17.70;7.47;;;;;;;15.01;60.23;100233.56;1719075;81;20964;-70
2022/09/05 07:38:24;;;;;;;15.70;8.55;;;;;;;14.88;60.85;100247.56;1724364;80;21089;-69
2022/09/05 07:41:01;;;;;;;58.27;10.07;;;;;;;14.76;61.07;100241.31;1730974;81;20835;-69
2022/09/05 07:43:34;;;;;;;29.80;8.85;;;;;;;14.67;61.89;100234.98;1727893;81;21498;-67
2022/09/05 07:46:12;;;;;;;;;;;;;;;14.61;62.45;100242.62;1706632;82;21754;-67
2022/09/05 07:49:07;;;;;;;19.23;8.68;;;;;;;14.53;62.62;100245.62;1705701;82;20431;-66
2022/09/05 07:51:39;;;;;;;26.37;9.68;;;;;;;14.45;63.14;100248.39;1722698;82;21020;-69
2022/09/05 07:54:18;;;;;;;21.20;9.80;;;;;;;14.39;63.39;100249.69;1708222;83;21007;-70
2022/09/05 07:56:52;;;;;;;21.95;10.40;;;;;;;14.34;63.55;100253.42;1701946;82;21030;-71
2022/09/05 07:59:22;;;;;;;23.12;10.78;;;;;;;14.30;63.81;100251.05;1711417;82;21208;-71
2022/09/05 08:01:51;;;;;;;23.55;9.35;;;;;;;14.28;64.02;100241.47;1688930;83;20938;-72
2022/09/05 08:04:27;;;;;;;14.33;7.90;;;;;;;14.24;64.39;100238.55;1686747;83;21003;-71
2022/09/05 08:06:57;;;;;;;17.10;6.85;;;;;;;14.23;65.26;100236.91;1709492;83;21556;-69
2022/09/05 08:09:27;;;;;;;15.28;6.78;;;;;;;14.29;65.78;100244.48;1701543;84;20947;-72
2022/09/05 08:11:58;;;;;;;22.13;7.40;;;;;;;14.38;66.08;100240.59;1701527;82;21115;-70
2022/09/05 08:14:53;;;;;;;12.18;6.62;;;;;;;14.47;66.68;100233.12;1699606;84;20959;-73
2022/09/05 08:17:22;;;;;;;27.20;7.70;;;;;;;14.64;66.37;100235.06;1693713;82;21023;-71
2022/09/05 08:20:19;;;;;;;19.50;6.55;;;;;;;14.88;66.36;100227.64;1696651;82;20931;-69
2022/09/05 08:23:23;;;;;;;14.85;7.42;;;;;;;15.09;65.80;100234.08;1702533;82;21483;-76
2022/09/05 08:26:08;;;;;;;17.32;6.90;;;;;;;15.29;64.77;100233.95;1688837;83;21560;-68
2022/09/05 08:29:05;;;;;;;15.72;6.35;;;;;;;15.44;64.95;100229.26;1713351;82;20983;-73
2022/09/05 08:31:46;;;;;;;18.92;7.20;;;;;;;15.61;64.43;100231.72;1692865;83;21090;-70
2022/09/05 08:34:20;;;;;;;11.65;6.95;;;;;;;15.77;63.83;100220.33;1710089;83;20935;-68
2022/09/05 08:36:48;;;;;;;41.13;8.48;;;;;;;16.10;63.04;100227.37;1689832;83;20939;-73
2022/09/05 08:39:19;;;;;;;20.27;9.95;;;;;;;16.62;63.40;100223.61;1708271;83;21355;-71
2022/09/05 08:42:07;;;;;;;17.60;8.05;;;;;;;17.31;59.83;100217.94;1704618;83;21057;-73
2022/09/05 08:45:19;;;;;;;12.95;6.87;;;;;;;17.99;57.79;100206.48;1709347;83;21566;-70
2022/09/05 08:48:06;;;;;;;12.00;6.93;;;;;;;18.51;54.60;100206.22;1656973;85;21130;-71
2022/09/05 08:51:02;;;;;;;13.25;6.78;;;;;;;18.77;54.76;100211.59;1698424;82;20969;-70
2022/09/05 08:54:17;;;;;;;13.62;7.33;;;;;;;19.20;54.22;100204.97;1703440;83;21152;-73
2022/09/05 08:57:16;;;;;;;12.23;7.30;;;;;;;19.64;52.64;100192.59;1675575;84;20995;-71
2022/09/05 09:00:07;;;;;;;16.70;8.45;;;;;;;20.15;48.91;100191.78;1686064;84;21443;-77
2022/09/05 09:03:15;;;;;;;15.38;8.35;;;;;;;20.59;50.11;100179.78;1694624;83;21889;-79
2022/09/05 09:06:12;;;;;;;21.17;8.88;;;;;;;21.01;48.75;100175.59;1674623;84;21007;-85
2022/09/05 09:09:11;;;;;;;14.87;7.10;;;;;;;21.41;49.36;100179.30;1686589;83;21265;-90
2022/09/05 09:11:52;;;;;;;15.93;7.72;;;;;;;21.97;47.45;100178.57;1692579;83;20962;-87
2022/09/05 09:14:39;;;;;;;21.62;9.33;;;;;;;22.16;44.89;100168.69;1684818;83;21033;-83
2022/09/05 09:17:33;;;;;;;18.82;8.15;;;;;;;22.15;44.19;100162.89;1689257;81;20978;-74
2022/09/05 09:20:11;;;;;;;9.53;5.92;;;;;;;22.27;44.43;100159.86;1698011;83;20941;-78
2022/09/05 09:23:07;;;;;;;36.58;6.40;;;;;;;22.50;45.02;100160.34;1642028;85;21139;-80
2022/09/05 09:25:51;;;;;;;9.65;4.55;;;;;;;22.89;42.96;100159.39;1637515;85;21346;-76
2022/09/05 09:28:50;;;;;;;10.53;5.75;;;;;;;23.14;42.35;100165.22;1683810;83;21035;-76
2022/09/05 09:31:42;;;;;;;10.10;6.62;;;;;;;23.32;42.46;100159.19;1674798;84;20935;-78
2022/09/05 09:34:31;;;;;;;9.90;6.60;;;;;;;23.39;41.52;100163.45;1679981;84;21021;-80
2022/09/05 09:37:34;;;;;;;12.55;6.35;;;;;;;23.38;42.17;100157.64;1678026;84;21825;-75
2022/09/05 09:40:27;;;;;;;;;;;;;;;23.47;41.84;100150.31;1697769;83;21435;-79
2022/09/05 09:43:27;;;;;;;10.28;6.15;;;;;;;23.31;40.47;100151.98;1704298;82;20086;-83
2022/09/05 09:46:26;;;;;;;7.55;4.67;;;;;;;23.27;41.64;100149.14;1699102;82;27698;-82
2022/09/05 09:49:34;;;;;;;12.15;5.20;;;;;;;23.35;40.14;100147.20;1711138;82;21048;-85
2022/09/05 09:52:09;;;;;;;12.80;6.90;;;;;;;23.57;40.78;100132.80;1726544;82;21229;-80
2022/09/05 09:55:30;;;;;;;11.30;5.60;;;;;;;23.78;39.46;100133.52;1731466;81;20975;-77
2022/09/05 09:58:08;;;;;;;14.33;6.92;;;;;;;23.76;38.85;100131.11;1722413;82;20956;-72
2022/09/05 10:00:50;;;;;;;9.08;5.50;;;;;;;23.95;39.06;100128.03;1724258;82;21271;-73
2022/09/05 10:03:50;;;;;;;9.30;5.90;;;;;;;24.11;38.59;100122.11;1711508;82;21515;-74
2022/09/05 10:06:56;;;;;;;11.30;6.58;;;;;;;24.31;37.76;100122.59;1702663;83;22090;-75
2022/09/05 10:10:16;;;;;;;14.90;8.55;;;;;;;24.49;38.21;100130.48;1714496;82;20906;-72
2022/09/05 10:13:14;;;;;;;23.38;10.90;;;;;;;24.49;37.56;100124.87;1714433;82;21047;-85
2022/09/05 10:16:26;;;;;;;23.27;12.55;;;;;;;23.85;38.24;100126.56;1705362;82;20962;-76
2022/09/05 10:19:13;;;;;;;22.90;13.43;;;;;;;23.03;38.28;100124.55;1598586;86;21141;-74
2022/09/05 10:22:10;;;;;;;18.20;11.63;;;;;;;22.19;39.44;100134.38;1595648;87;21262;-75
2022/09/05 10:25:03;;;;;;;25.57;14.58;;;;;;;21.47;40.73;100126.14;1652541;85;20955;-72
2022/09/05 10:28:04;;;;;;;24.47;13.40;;;;;;;20.92;42.01;100135.95;1698387;82;20940;-75
2022/09/05 10:30:49;;;;;;;30.53;15.57;;;;;;;20.69;42.53;100133.16;1730395;82;21164;-72
2022/09/05 10:33:41;;;;;;;32.05;16.85;;;;;;;20.82;43.19;100129.00;1686544;83;20987;-83
2022/09/05 10:36:26;;;;;;;35.15;18.35;;;;;;;21.07;43.06;100126.07;1697284;82;21497;-83
2022/09/05 10:39:16;;;;;;;33.18;19.40;;;;;;;21.43;41.75;100121.89;1712992;82;21051;-81
2022/09/05 10:41:59;;;;;;;20.97;11.78;;;;;;;21.72;41.58;100121.74;1714313;81;21431;-80
2022/09/05 10:44:39;;;;;;;23.20;14.50;;;;;;;22.14;38.96;100118.53;1702972;83;20987;-79
2022/09/05 10:47:37;;;;;;;31.33;15.93;;;;;;;22.34;40.32;100115.20;1703495;83;20940;-76
2022/09/05 10:50:24;;;;;;;28.17;15.08;;;;;;;22.47;39.54;100122.74;1716127;81;21272;-77
2022/09/05 10:53:30;;;;;;;20.37;12.68;;;;;;;22.30;39.59;100119.94;1686846;84;20960;-77
2022/09/05 10:56:13;;;;;;;23.38;14.25;;;;;;;22.20;39.88;100114.22;1685215;84;20979;-76
2022/09/05 10:59:03;;;;;;;26.00;15.50;;;;;;;22.13;39.04;100108.53;1674764;84;21570;-84
2022/09/05 11:01:53;;;;;;;26.62;14.75;;;;;;;22.03;40.41;100109.41;1697165;84;20926;-76
2022/09/05 11:04:52;;;;;;;28.20;16.73;;;;;;;22.22;40.37;100104.26;1690085;84;21306;-76
2022/09/05 11:08:00;;;;;;;32.23;19.27;;;;;;;22.70;38.41;100101.58;1686067;84;20931;-74
2022/09/05 11:11:00;;;;;;;35.45;21.35;;;;;;;22.94;38.95;100093.26;1689478;84;21010;-80
2022/09/05 11:13:35;;;;;;;36.70;19.07;;;;;;;23.08;38.44;100091.98;1717877;81;20977;-79
2022/09/05 11:16:34;;;;;;;26.20;17.52;;;;;;;22.99;38.89;100092.31;1721513;82;21559;-76
2022/09/05 11:19:18;;;;;;;46.45;17.25;;;;;;;23.18;38.84;100090.44;1714081;81;21266;-81
2022/09/05 11:22:01;;;;;;;43.80;16.17;;;;;;;23.51;38.02;100088.90;1713227;83;20989;-76
2022/09/05 11:24:42;;;;;;;28.23;15.25;;;;;;;23.53;36.71;100087.95;1682729;83;21517;-77
2022/09/05 11:27:31;;;;;;;25.32;13.58;;;;;;;23.37;36.41;100080.39;1684501;83;20907;-76
2022/09/05 11:30:15;;;;;;;19.12;11.60;;;;;;;22.92;37.04;100086.64;1675184;83;21054;-77
2022/09/05 11:33:02;;;;;;;23.70;12.82;;;;;;;22.64;37.87;100086.33;1711368;83;21121;-75
2022/09/05 11:35:36;;;;;;;22.32;12.63;;;;;;;22.35;37.12;100084.64;1649289;84;21083;-76
2022/09/05 11:38:40;;;;;;;24.30;13.25;;;;;;;22.07;36.67;100082.89;1683971;84;21041;-75
2022/09/05 11:41:53;;;;;;;22.65;13.28;;;;;;;22.00;37.26;100071.59;1683464;83;21129;-76
2022/09/05 11:44:37;;;;;;;22.25;12.53;;;;;;;21.98;37.53;100076.16;1687938;84;21064;-76
2022/09/05 11:47:35;;;;;;;20.27;11.57;;;;;;;21.92;37.60;100064.33;1651392;85;21087;-75
2022/09/05 11:50:33;;;;;;;17.45;11.22;;;;;;;21.77;37.83;100063.33;1677175;84;21034;-87
2022/09/05 11:53:41;;;;;;;20.92;12.20;;;;;;;21.58;38.76;100060.66;1632762;85;21519;-76
2022/09/05 11:56:39;;;;;;;19.42;11.25;;;;;;;21.25;39.08;100064.17;1668764;85;21016;-76
2022/09/05 11:59:26;;;;;;;21.23;13.40;;;;;;;20.80;40.37;100067.17;1666768;84;20865;-74
2022/09/05 12:02:22;;;;;;;24.07;13.70;;;;;;;20.52;40.73;100066.09;1668116;84;21240;-74
2022/09/05 12:05:19;;;;;;;30.30;14.58;;;;;;;20.33;40.91;100062.72;1654284;84;21076;-75
2022/09/05 12:08:11;;;;;;;23.05;11.97;;;;;;;20.14;41.22;100061.95;1671197;84;21099;-77
2022/09/05 12:11:09;;;;;;;31.17;14.75;;;;;;;19.89;42.23;100062.23;1673793;84;21145;-75
2022/09/05 12:14:09;;;;;;;32.42;16.62;;;;;;;19.79;42.43;100062.81;1665268;85;21686;-75
2022/09/05 12:16:50;;;;;;;23.95;11.68;;;;;;;19.67;42.96;100060.16;1670909;84;21202;-80
2022/09/05 12:19:23;;;;;;;20.27;10.23;;;;;;;19.61;43.48;100062.45;1669740;84;22183;-73
2022/09/05 12:22:38;;;;;;;18.20;9.90;;;;;;;19.59;43.85;100065.38;1658792;84;22407;-73
2022/09/05 12:25:35;;;;;;;17.62;9.55;;;;;;;19.60;44.49;100064.20;1671109;85;20948;-75
2022/09/05 12:28:06;;;;;;;21.62;9.50;;;;;;;19.61;44.81;100065.82;1660419;84;21178;-73
2022/09/05 12:30:37;;;;;;;17.55;8.75;;;;;;;19.60;43.97;100067.80;1669935;84;21264;-76
2022/09/05 12:33:14;;;;;;;14.05;8.95;;;;;;;19.56;43.29;100064.71;1668771;84;21007;-76
2022/09/05 12:35:53;;;;;;;15.60;8.20;;;;;;;19.58;43.88;100065.96;1675093;84;21027;-77
2022/09/05 12:38:34;;;;;;;19.42;8.30;;;;;;;19.99;44.20;100054.69;1655606;84;21459;-72
2022/09/05 12:41:19;;;;;;;17.90;10.15;;;;;;;20.74;42.88;100050.56;1660859;84;21573;-73
2022/09/05 12:44:00;;;;;;;14.53;9.03;;;;;;;21.43;40.93;100043.69;1662952;84;21156;-73
2022/09/05 12:46:51;;;;;;;12.40;8.18;;;;;;;22.12;39.35;100036.43;1664844;84;20904;-72
2022/09/05 12:49:32;;;;;;;17.23;7.62;;;;;;;22.75;38.11;100031.27;1702298;82;20974;-70
2022/09/05 12:52:35;;;;;;;21.43;6.83;;;;;;;23.28;35.96;100028.10;1723422;81;20981;-74
2022/09/05 12:55:30;;;;;;;17.32;7.25;;;;;;;23.44;33.96;100016.60;1725874;82;20986;-73
2022/09/05 12:58:00;;;;;;;22.55;11.18;;;;;;;23.05;34.22;100020.77;1717415;82;21239;-71